Time;durP1;ratioP1;P1;durP2;ratioP2;P2;SDS_P1;SDS_P2;PMS_P1;PMS_P2;Temp;Humidity;BMP_temperature;BMP_pressure;BME280_temperature;BME280_humidity;BME280_pressure;Samples;Min_cycle;Max_cycle;Signal;HPM_P1;HPM_P2
2022/10/04 00:01:53;;;;;;;11.35;4.75;;;12.50;99.90;;;;;;5035265;28;20029;-91
2022/10/04 00:04:22;;;;;;;9.70;4.72;;;12.60;99.90;;;;;;5044436;28;20048;-92
2022/10/04 00:07:04;;;;;;;14.73;5.05;;;12.60;99.90;;;;;;5039738;28;20115;-92
2022/10/04 00:09:40;;;;;;;8.05;4.60;;;12.60;99.90;;;;;;5034705;28;20025;-93
2022/10/04 00:12:13;;;;;;;10.30;5.35;;;12.60;99.90;;;;;;5041268;28;20196;-95
2022/10/04 00:14:42;;;;;;;11.40;4.80;;;12.60;99.90;;;;;;5032853;28;20032;-93
2022/10/04 00:17:11;;;;;;;12.07;4.38;;;12.60;99.90;;;;;;5032395;28;20029;-93
2022/10/04 00:19:45;;;;;;;8.75;4.35;;;12.70;99.90;;;;;;5032061;28;20168;-93
2022/10/04 00:22:22;;;;;;;10.00;4.60;;;12.70;99.90;;;;;;5032055;28;20813;-93
2022/10/04 00:25:06;;;;;;;10.32;4.40;;;12.70;99.90;;;;;;5031785;28;20035;-90
2022/10/04 00:27:33;;;;;;;7.18;4.22;;;12.70;99.90;;;;;;5032049;28;20025;-93
2022/10/04 00:30:13;;;;;;;9.20;4.47;;;12.70;99.90;;;;;;5033711;28;20057;-92
2022/10/04 00:32:58;;;;;;;11.07;5.20;;;12.70;99.90;;;;;;5037673;28;20231;-92
2022/10/04 00:35:23;;;;;;;17.08;6.10;;;12.80;99.90;;;;;;5038488;28;20032;-92
2022/10/04 00:37:56;;;;;;;10.02;5.38;;;12.80;99.90;;;;;;5037432;28;20056;-93
2022/10/04 00:40:26;;;;;;;11.50;5.95;;;12.80;99.90;;;;;;5033514;28;20037;-94
2022/10/04 00:43:03;;;;;;;12.32;5.55;;;12.80;99.90;;;;;;5031119;28;20061;-93
2022/10/04 00:45:51;;;;;;;13.73;5.50;;;12.80;99.90;;;;;;5031964;28;20422;-93
2022/10/04 00:48:33;;;;;;;8.18;4.72;;;12.90;99.90;;;;;;5016251;28;20070;-93
2022/10/04 00:51:24;;;;;;;14.40;5.55;;;12.90;99.90;;;;;;5012136;28;20053;-94
2022/10/04 00:54:11;;;;;;;9.02;5.28;;;12.90;99.90;;;;;;5011979;28;20112;-93
2022/10/04 00:56:59;;;;;;;11.50;6.50;;;12.90;99.90;;;;;;5012079;28;20034;-94
2022/10/04 00:59:37;;;;;;;12.80;6.43;;;12.90;99.90;;;;;;5011922;28;20049;-94
2022/10/04 01:02:05;;;;;;;13.57;6.18;;;12.90;99.90;;;;;;5011481;28;20033;-93
2022/10/04 01:04:49;;;;;;;10.93;6.50;;;12.90;99.90;;;;;;5011381;28;20088;-92
2022/10/04 01:07:21;;;;;;;12.60;7.32;;;12.90;99.90;;;;;;5011948;28;20459;-93
2022/10/04 01:09:56;;;;;;;8.27;5.70;;;13.00;99.90;;;;;;5012087;28;20113;-93
2022/10/04 01:12:42;;;;;;;14.23;7.07;;;12.90;99.90;;;;;;5013002;28;20050;-95
2022/10/04 01:15:35;;;;;;;14.48;7.30;;;12.90;99.90;;;;;;5017058;28;20093;-94
2022/10/04 01:18:26;;;;;;;12.57;6.60;;;13.00;99.90;;;;;;5014139;28;20026;-92
2022/10/04 01:20:53;;;;;;;;;;;13.00;99.90;;;;;;5011970;28;20038;-93
2022/10/04 01:23:34;;;;;;;11.02;6.45;;;13.00;99.90;;;;;;5011676;28;19905;-93
2022/10/04 01:26:00;;;;;;;;;;;13.00;99.90;;;;;;5015410;28;20030;-92
2022/10/04 01:28:26;;;;;;;12.48;5.90;;;13.00;99.90;;;;;;5015622;28;19955;-94
2022/10/04 01:30:52;;;;;;;14.90;7.90;;;13.00;99.90;;;;;;5016673;28;20057;-94
2022/10/04 01:33:18;;;;;;;13.50;7.78;;;13.00;99.90;;;;;;5016211;28;20129;-93
2022/10/04 01:35:44;;;;;;;13.27;6.88;;;13.00;99.90;;;;;;5019024;28;20053;-93
2022/10/04 01:38:15;;;;;;;12.07;7.03;;;13.00;99.90;;;;;;5014879;28;20031;-92
2022/10/04 01:40:58;;;;;;;14.95;7.55;;;13.00;99.90;;;;;;5003418;28;20041;-94
2022/10/04 01:43:32;;;;;;;13.95;8.25;;;13.00;99.90;;;;;;4998565;28;20030;-94
2022/10/04 01:46:09;;;;;;;13.48;8.05;;;13.10;99.90;;;;;;5015492;28;20049;-94
2022/10/04 01:48:37;;;;;;;13.43;7.88;;;13.00;99.90;;;;;;5015422;28;20044;-93
2022/10/04 01:51:18;;;;;;;9.52;5.95;;;13.10;99.90;;;;;;5015108;28;20544;-94
2022/10/04 01:53:55;;;;;;;9.48;6.75;;;13.10;99.90;;;;;;5016016;28;20070;-94
2022/10/04 01:56:25;;;;;;;11.45;7.10;;;13.00;99.90;;;;;;5017191;28;20475;-92
2022/10/04 01:58:58;;;;;;;12.52;6.60;;;13.10;99.90;;;;;;5015144;28;20038;-93
2022/10/04 02:01:30;;;;;;;17.20;7.68;;;13.10;99.90;;;;;;5015459;28;20419;-93
2022/10/04 02:04:13;;;;;;;12.55;7.05;;;13.10;99.90;;;;;;5015323;28;20120;-93
2022/10/04 02:06:42;;;;;;;12.57;6.50;;;13.10;99.90;;;;;;5015091;28;20034;-93
2022/10/04 02:09:12;;;;;;;11.10;6.57;;;13.10;99.90;;;;;;5014315;28;20033;-94
2022/10/04 02:11:40;;;;;;;13.65;5.95;;;13.10;99.90;;;;;;5014216;28;20046;-95
2022/10/04 02:14:16;;;;;;;8.25;6.05;;;13.20;99.90;;;;;;5014397;28;20079;-93
2022/10/04 02:16:46;;;;;;;8.75;5.30;;;13.20;99.90;;;;;;5013439;28;20084;-94
2022/10/04 02:19:14;;;;;;;6.60;4.70;;;13.20;99.90;;;;;;5014648;28;20073;-94
2022/10/04 02:21:40;;;;;;;7.38;5.38;;;13.20;99.90;;;;;;5022774;28;20026;-92
2022/10/04 02:24:07;;;;;;;10.90;5.07;;;13.20;99.90;;;;;;5025352;28;20508;-93
2022/10/04 02:26:33;;;;;;;6.90;4.38;;;13.30;99.90;;;;;;5014647;28;20022;-93
2022/10/04 02:28:59;;;;;;;6.20;4.45;;;13.30;99.90;;;;;;5014194;28;20037;-93
2022/10/04 02:34:10;;;;;;;5.00;4.03;;;13.30;99.90;;;;;;5015440;28;20095;-93
2022/10/04 02:36:37;;;;;;;6.28;3.90;;;13.40;99.90;;;;;;5013107;28;20025;-93
2022/10/04 02:39:16;;;;;;;5.95;3.90;;;13.40;99.90;;;;;;5014209;28;20044;-93
2022/10/04 02:41:43;;;;;;;5.63;3.70;;;13.40;99.90;;;;;;5014331;28;20056;-92
2022/10/04 02:44:21;;;;;;;7.15;4.70;;;13.40;99.90;;;;;;5014332;28;20029;-95
2022/10/04 02:46:57;;;;;;;5.28;3.55;;;13.40;99.90;;;;;;5014172;28;20380;-93
2022/10/04 02:50:05;;;;;;;4.53;3.50;;;13.40;99.90;;;;;;5013830;28;20506;-93
2022/10/04 02:52:45;;;;;;;6.65;3.75;;;13.40;99.90;;;;;;4954952;29;20023;-94
2022/10/04 02:55:23;;;;;;;5.47;3.80;;;13.40;99.90;;;;;;4938453;29;20054;-96
2022/10/04 02:57:51;;;;;;;5.65;3.78;;;13.40;99.90;;;;;;4938728;29;20107;-93
2022/10/04 03:00:28;;;;;;;8.40;3.60;;;13.50;99.90;;;;;;4938350;29;20482;-92
2022/10/04 03:03:12;;;;;;;9.90;4.90;;;13.50;99.90;;;;;;4938722;29;20034;-94
2022/10/04 03:05:39;;;;;;;3.88;2.97;;;13.50;99.90;;;;;;4937854;29;20035;-94
2022/10/04 03:08:05;;;;;;;4.70;3.10;;;13.50;99.90;;;;;;4938474;29;20031;-91
2022/10/04 03:10:31;;;;;;;5.13;3.00;;;13.50;99.90;;;;;;4938928;29;20032;-92
2022/10/04 03:12:58;;;;;;;5.43;3.22;;;13.50;99.90;;;;;;4939295;29;20039;-93
2022/10/04 03:15:24;;;;;;;4.22;2.55;;;13.50;99.90;;;;;;4940485;29;20027;-92
2022/10/04 03:17:51;;;;;;;3.17;2.63;;;13.50;99.90;;;;;;4944993;29;20369;-92
2022/10/04 03:20:20;;;;;;;4.35;2.58;;;13.50;99.90;;;;;;4945232;29;20047;-94
2022/10/04 03:22:51;;;;;;;4.45;2.20;;;13.50;99.90;;;;;;4945335;29;20110;-93
2022/10/04 03:25:21;;;;;;;2.67;2.03;;;13.50;99.90;;;;;;4963138;28;20058;-91
2022/10/04 03:27:48;;;;;;;2.25;1.92;;;13.50;99.90;;;;;;5013028;28;20018;-93
2022/10/04 03:30:15;;;;;;;6.60;2.08;;;13.50;99.90;;;;;;5013192;28;20034;-92
2022/10/04 03:32:42;;;;;;;4.07;2.28;;;13.50;99.90;;;;;;5013155;28;20092;-91
2022/10/04 03:35:24;;;;;;;4.90;2.47;;;13.50;99.90;;;;;;5009555;28;20080;-93
2022/10/04 03:37:50;;;;;;;2.42;2.05;;;13.50;99.90;;;;;;4993229;28;20037;-92
2022/10/04 03:40:17;;;;;;;6.63;2.60;;;13.60;99.90;;;;;;4993573;28;20553;-91
2022/10/04 03:42:45;;;;;;;3.30;2.20;;;13.60;99.90;;;;;;4993421;28;20026;-93
2022/10/04 03:45:15;;;;;;;3.67;2.67;;;13.60;99.90;;;;;;4993793;28;20031;-93
2022/10/04 03:47:47;;;;;;;2.90;2.38;;;13.60;99.90;;;;;;4993312;28;20026;-91
2022/10/04 03:50:19;;;;;;;4.32;2.33;;;13.60;99.90;;;;;;4995492;28;20052;-91
2022/10/04 03:52:53;;;;;;;4.18;2.33;;;13.60;99.90;;;;;;4993646;28;20034;-92
2022/10/04 03:55:23;;;;;;;3.40;2.70;;;13.60;99.90;;;;;;4993402;28;20038;-93
2022/10/04 03:57:49;;;;;;;3.25;2.60;;;13.50;99.90;;;;;;4993127;28;20058;-92
2022/10/04 04:00:17;;;;;;;3.20;2.65;;;13.50;99.90;;;;;;4993892;28;20077;-95
2022/10/04 04:02:48;;;;;;;3.55;2.70;;;13.50;99.90;;;;;;4993966;28;20085;-93
2022/10/04 04:05:25;;;;;;;4.63;3.10;;;13.50;99.90;;;;;;4993707;28;20040;-94
2022/10/04 04:08:13;;;;;;;3.85;2.70;;;13.60;99.90;;;;;;4993197;28;20085;-92
2022/10/04 04:10:43;;;;;;;4.90;3.20;;;13.50;99.90;;;;;;4992765;28;20073;-92
2022/10/04 04:13:30;;;;;;;3.53;2.72;;;13.60;99.90;;;;;;4992886;28;20129;-93
2022/10/04 04:15:59;;;;;;;3.67;2.40;;;13.50;99.90;;;;;;4992972;28;20065;-93
2022/10/04 04:18:30;;;;;;;9.98;2.95;;;13.60;99.90;;;;;;4992909;28;20068;-93
2022/10/04 04:21:02;;;;;;;5.47;2.83;;;13.60;99.90;;;;;;4993467;28;20102;-92
2022/10/04 04:23:31;;;;;;;4.07;3.17;;;13.60;99.90;;;;;;4992698;28;20030;-93
2022/10/04 04:26:18;;;;;;;3.33;2.65;;;13.60;99.90;;;;;;4992110;28;20031;-93
2022/10/04 04:28:49;;;;;;;3.60;2.80;;;13.50;99.90;;;;;;4992586;28;20196;-92
2022/10/04 04:31:28;;;;;;;4.32;3.15;;;13.60;99.90;;;;;;4992131;28;20038;-92
2022/10/04 04:34:05;;;;;;;3.20;2.72;;;13.60;99.90;;;;;;4992519;28;20392;-91
2022/10/04 04:36:43;;;;;;;5.32;2.90;;;13.50;99.90;;;;;;4993317;28;20022;-91
2022/10/04 04:39:47;;;;;;;4.20;2.97;;;13.50;99.90;;;;;;4992874;28;20089;-91
2022/10/04 04:42:32;;;;;;;3.72;2.75;;;13.50;99.90;;;;;;4992729;28;20026;-92
2022/10/04 04:45:13;;;;;;;3.75;2.63;;;13.50;99.90;;;;;;4992006;28;20030;-93
2022/10/04 04:47:53;;;;;;;3.40;2.72;;;13.50;99.90;;;;;;4991647;28;20038;-94
2022/10/04 04:50:24;;;;;;;4.27;2.93;;;13.40;99.90;;;;;;4991645;28;20077;-93
2022/10/04 04:52:57;;;;;;;3.72;2.97;;;13.40;99.90;;;;;;4991921;28;20030;-94
2022/10/04 04:55:31;;;;;;;3.67;2.60;;;13.40;99.90;;;;;;4992022;28;20113;-94
2022/10/04 04:57:58;;;;;;;4.05;2.22;;;13.40;99.90;;;;;;4992498;28;20026;-93
2022/10/04 05:00:34;;;;;;;4.75;2.70;;;13.40;99.90;;;;;;4995410;28;20042;-93
2022/10/04 05:03:02;;;;;;;4.38;2.83;;;13.40;99.90;;;;;;4997046;28;20026;-94
2022/10/04 05:05:32;;;;;;;3.85;2.85;;;13.40;99.90;;;;;;4998690;28;20088;-93
2022/10/04 05:08:17;;;;;;;4.35;2.45;;;13.40;99.90;;;;;;4999259;28;20026;-94
2022/10/04 05:11:00;;;;;;;5.70;2.85;;;13.30;99.90;;;;;;5017239;28;20034;-93
2022/10/04 05:13:51;;;;;;;9.45;3.33;;;13.30;99.90;;;;;;4998297;28;20034;-91
2022/10/04 05:16:41;;;;;;;10.85;2.95;;;13.30;99.90;;;;;;4996113;28;20030;-93
2022/10/04 05:19:19;;;;;;;4.95;2.90;;;13.30;99.90;;;;;;4996063;28;20130;-92
2022/10/04 05:21:47;;;;;;;4.78;3.08;;;13.20;99.90;;;;;;4996487;28;20033;-95
2022/10/04 05:24:27;;;;;;;7.13;3.28;;;13.20;99.90;;;;;;4997928;28;20121;-92
2022/10/04 05:27:20;;;;;;;6.68;3.50;;;13.20;99.90;;;;;;4996373;28;20053;-92
2022/10/04 05:30:08;;;;;;;4.57;3.10;;;13.20;99.90;;;;;;4991543;28;20076;-91
2022/10/04 05:32:40;;;;;;;3.90;2.88;;;13.20;99.90;;;;;;4995263;28;20031;-94
2022/10/04 05:35:17;;;;;;;5.97;2.53;;;13.20;99.90;;;;;;4995982;28;20026;-93
2022/10/04 05:37:58;;;;;;;5.85;3.40;;;13.20;99.90;;;;;;5009793;28;20076;-92
2022/10/04 05:40:33;;;;;;;6.93;3.00;;;13.20;99.90;;;;;;5025491;28;20254;-95
2022/10/04 05:42:58;;;;;;;5.25;3.33;;;13.20;99.90;;;;;;5028720;28;20032;-95
2022/10/04 05:45:29;;;;;;;5.38;3.30;;;13.20;99.90;;;;;;5026618;28;20029;-95
2022/10/04 05:48:06;;;;;;;3.85;2.58;;;13.20;99.90;;;;;;5028828;28;20029;-93
2022/10/04 05:50:40;;;;;;;5.30;3.03;;;13.30;99.90;;;;;;5038667;28;20030;-95
2022/10/04 05:53:32;;;;;;;3.70;3.28;;;13.30;99.90;;;;;;5017347;28;20061;-94
2022/10/04 05:56:22;;;;;;;4.88;2.40;;;13.30;99.90;;;;;;5021944;28;20026;-93
2022/10/04 05:59:18;;;;;;;3.13;2.10;;;13.30;99.90;;;;;;5018388;28;20040;-94
2022/10/04 06:02:13;;;;;;;5.13;2.92;;;13.40;99.90;;;;;;5019604;28;20479;-92
2022/10/04 06:05:23;;;;;;;3.20;2.08;;;13.40;99.90;;;;;;5006362;28;20377;-92
2022/10/04 06:08:12;;;;;;;3.88;2.40;;;13.40;99.90;;;;;;4927363;29;20521;-91
2022/10/04 06:10:49;;;;;;;3.75;2.50;;;13.40;99.90;;;;;;4927527;29;20019;-92
2022/10/04 06:13:51;;;;;;;8.60;3.47;;;13.40;99.90;;;;;;4934099;29;20036;-91
2022/10/04 06:16:50;;;;;;;3.53;1.95;;;13.50;99.90;;;;;;4932590;29;20028;-92
2022/10/04 06:19:48;;;;;;;4.20;2.40;;;13.50;99.90;;;;;;4911487;29;20055;-91
2022/10/04 06:22:15;;;;;;;3.10;1.92;;;13.50;99.90;;;;;;4927332;29;20516;-91
2022/10/04 06:25:03;;;;;;;3.60;1.90;;;13.50;99.90;;;;;;4933539;29;20035;-91
2022/10/04 06:27:47;;;;;;;4.07;1.95;;;13.50;99.90;;;;;;4931023;29;20028;-92
2022/10/04 06:30:18;;;;;;;6.00;2.10;;;13.50;99.90;;;;;;4915198;29;20099;-92
2022/10/04 06:33:14;;;;;;;2.83;1.95;;;13.50;99.90;;;;;;4944618;29;20032;-91
2022/10/04 06:36:10;;;;;;;3.72;1.98;;;13.50;99.90;;;;;;4923226;29;20028;-93
2022/10/04 06:38:43;;;;;;;4.82;2.40;;;13.60;99.90;;;;;;4901807;29;20102;-92
2022/10/04 06:42:02;;;;;;;5.20;2.17;;;13.50;99.90;;;;;;4934728;29;20055;-91
2022/10/04 06:44:46;;;;;;;3.80;1.83;;;13.60;99.90;;;;;;4925916;29;20042;-93
2022/10/04 06:47:34;;;;;;;2.38;1.98;;;13.60;99.90;;;;;;4940788;29;20171;-93
2022/10/04 06:50:27;;;;;;;6.43;3.80;;;13.60;99.90;;;;;;4960557;29;20043;-94
2022/10/04 06:53:07;;;;;;;5.50;2.35;;;13.60;99.90;;;;;;4944264;29;20166;-93
2022/10/04 06:56:05;;;;;;;5.93;2.92;;;13.60;99.90;;;;;;4954097;29;20039;-91
2022/10/04 06:58:54;;;;;;;5.95;3.30;;;13.60;99.90;;;;;;4942989;29;20110;-92
2022/10/04 07:01:26;;;;;;;7.20;3.63;;;13.60;99.90;;;;;;4920109;29;20063;-91
2022/10/04 07:04:11;;;;;;;4.13;2.22;;;13.60;99.90;;;;;;4922073;29;20488;-92
2022/10/04 07:07:23;;;;;;;5.43;2.50;;;13.60;99.90;;;;;;4939054;29;20039;-92
2022/10/04 07:10:01;;;;;;;9.52;2.60;;;13.70;99.90;;;;;;4912103;29;20032;-92
2022/10/04 07:12:27;;;;;;;4.95;2.25;;;13.70;99.90;;;;;;4915581;29;20040;-94
2022/10/04 07:14:59;;;;;;;6.30;2.78;;;13.70;99.90;;;;;;4906803;29;20537;-94
2022/10/04 07:17:34;;;;;;;7.43;2.25;;;13.70;99.90;;;;;;4912136;29;20027;-92
2022/10/04 07:20:01;;;;;;;5.18;3.05;;;13.60;99.90;;;;;;4928650;29;20419;-94
2022/10/04 07:22:50;;;;;;;5.05;2.83;;;13.70;99.90;;;;;;4916729;29;20474;-91
2022/10/04 07:25:26;;;;;;;3.55;2.30;;;13.70;99.90;;;;;;4929128;29;20114;-92
2022/10/04 07:31:05;;;;;;;3.08;1.90;;;13.80;99.90;;;;;;4932606;29;20030;-91
2022/10/04 07:33:35;;;;;;;2.90;1.83;;;13.80;99.90;;;;;;4925804;29;20028;-92
2022/10/04 07:36:20;;;;;;;8.13;2.80;;;13.80;99.90;;;;;;4925373;29;20032;-91
2022/10/04 07:39:08;;;;;;;2.70;1.70;;;13.90;99.90;;;;;;4928148;29;20032;-92
2022/10/04 07:41:45;;;;;;;3.92;1.80;;;13.90;99.90;;;;;;4916337;29;20584;-93
2022/10/04 07:44:29;;;;;;;3.22;1.83;;;13.90;99.90;;;;;;4917029;29;20039;-92
2022/10/04 07:47:00;;;;;;;3.47;2.10;;;13.90;99.90;;;;;;4981642;28;20034;-93
2022/10/04 07:49:26;;;;;;;4.43;1.80;;;13.90;99.90;;;;;;4994603;28;20022;-92
2022/10/04 07:51:52;;;;;;;3.70;2.53;;;13.90;99.90;;;;;;5001464;28;20045;-94
2022/10/04 07:54:43;;;;;;;3.42;1.90;;;13.90;99.90;;;;;;5017333;28;20503;-95
2022/10/04 07:57:21;;;;;;;;;;;13.90;99.90;;;;;;5014192;28;20387;-93
2022/10/04 07:59:56;;;;;;;4.63;1.90;;;13.90;99.90;;;;;;5014519;28;19914;-95
2022/10/04 08:02:42;;;;;;;3.35;1.80;;;14.00;99.90;;;;;;5013950;28;20052;-96
2022/10/04 08:05:14;;;;;;;1.52;1.42;;;14.00;99.90;;;;;;5015342;28;20058;-93
2022/10/04 08:07:59;;;;;;;2.65;1.80;;;14.10;99.90;;;;;;5010540;28;20061;-95
2022/10/04 08:10:37;;;;;;;3.28;1.58;;;14.10;99.90;;;;;;5015627;28;20022;-94
2022/10/04 08:13:05;;;;;;;4.60;2.03;;;14.10;99.90;;;;;;5013398;28;20065;-95
2022/10/04 08:15:39;;;;;;;2.92;1.63;;;14.20;99.90;;;;;;5029873;28;20032;-94
2022/10/04 08:18:17;;;;;;;3.38;1.60;;;14.30;99.90;;;;;;5032954;28;20057;-93
2022/10/04 08:21:02;;;;;;;6.45;1.65;;;14.30;99.90;;;;;;5035437;28;20044;-93
2022/10/04 08:23:36;;;;;;;2.10;1.50;;;14.50;99.90;;;;;;5034257;28;20124;-93
2022/10/04 08:26:23;;;;;;;2.90;1.20;;;14.50;99.90;;;;;;5033428;28;20033;-94
2022/10/04 08:32:19;;;;;;;4.82;1.92;;;14.70;99.90;;;;;;5034726;28;20163;-93
2022/10/04 08:34:58;;;;;;;2.03;1.50;;;14.80;99.90;;;;;;5032950;28;20484;-94
2022/10/04 08:37:52;;;;;;;2.85;1.25;;;14.90;99.90;;;;;;5035746;28;20026;-93
2022/10/04 08:40:27;;;;;;;1.02;0.90;;;15.00;99.90;;;;;;5039453;28;20042;-96
2022/10/04 08:42:58;;;;;;;1.33;1.23;;;15.10;99.90;;;;;;5047280;28;20041;-93
2022/10/04 08:45:31;;;;;;;1.52;1.42;;;15.20;99.90;;;;;;5035493;28;20025;-93
2022/10/04 08:48:06;;;;;;;2.65;1.40;;;15.20;99.90;;;;;;5036257;28;20059;-94
2022/10/04 08:50:59;;;;;;;1.20;1.08;;;15.20;99.90;;;;;;5036675;28;20026;-96
2022/10/04 08:53:45;;;;;;;2.08;1.30;;;15.30;99.90;;;;;;5034576;28;20097;-94
2022/10/04 08:56:38;;;;;;;2.70;1.50;;;15.40;99.90;;;;;;5033020;28;20025;-95
2022/10/04 08:59:15;;;;;;;2.35;1.45;;;15.40;99.90;;;;;;5032983;28;20509;-94
2022/10/04 09:02:11;;;;;;;1.67;1.17;;;15.50;99.90;;;;;;5035514;28;20026;-93
2022/10/04 09:05:01;;;;;;;2.35;0.90;;;15.60;99.90;;;;;;5033883;28;20026;-94
2022/10/04 09:07:53;;;;;;;1.00;0.80;;;15.70;99.90;;;;;;5036117;28;20040;-94
2022/10/04 09:10:35;;;;;;;1.80;1.10;;;15.70;99.90;;;;;;5011174;28;20052;-94
2022/10/04 09:13:29;;;;;;;3.85;1.30;;;15.70;99.90;;;;;;4993117;28;20050;-96
2022/10/04 09:16:14;;;;;;;1.80;1.05;;;15.70;99.90;;;;;;4992789;28;20018;-95
2022/10/04 09:18:50;;;;;;;2.42;1.42;;;15.80;99.90;;;;;;4993666;28;20034;-94
2022/10/04 09:21:35;;;;;;;1.95;0.70;;;15.90;99.90;;;;;;4993297;28;20038;-96
2022/10/04 09:24:25;;;;;;;1.90;0.80;;;16.00;99.90;;;;;;5001839;28;20061;-95
2022/10/04 09:27:04;;;;;;;2.05;0.93;;;16.10;99.90;;;;;;5001870;28;20023;-94
2022/10/04 09:29:56;;;;;;;2.72;0.95;;;16.20;99.90;;;;;;5011078;28;20030;-93
2022/10/04 09:32:40;;;;;;;1.95;0.63;;;16.20;99.90;;;;;;4999348;28;20088;-93
2022/10/04 09:35:26;;;;;;;2.67;0.82;;;16.20;99.90;;;;;;5012044;28;20074;-95
2022/10/04 09:38:29;;;;;;;0.90;0.50;;;16.10;99.90;;;;;;4996566;28;20034;-94
2022/10/04 09:41:25;;;;;;;1.83;0.93;;;16.00;99.90;;;;;;5021808;28;20041;-92
2022/10/04 09:44:15;;;;;;;1.65;0.60;;;15.90;99.90;;;;;;5025031;28;20030;-94
2022/10/04 09:46:50;;;;;;;1.43;0.70;;;15.90;99.90;;;;;;5023278;28;20048;-93
2022/10/04 09:49:36;;;;;;;2.88;1.00;;;15.90;99.90;;;;;;5029709;28;20283;-93
2022/10/04 09:52:08;;;;;;;3.28;0.70;;;15.80;99.90;;;;;;5043395;28;20687;-94
2022/10/04 09:54:53;;;;;;;2.17;0.90;;;15.80;99.90;;;;;;5041197;28;20033;-94
2022/10/04 09:57:40;;;;;;;1.20;0.80;;;15.80;99.90;;;;;;5043931;28;20041;-96
2022/10/04 10:00:23;;;;;;;3.22;1.40;;;15.80;99.90;;;;;;5042252;28;20088;-93
2022/10/04 10:02:57;;;;;;;2.33;0.90;;;15.80;99.90;;;;;;5041662;28;20033;-91
2022/10/04 10:05:44;;;;;;;2.30;1.05;;;15.80;99.90;;;;;;5042606;28;20058;-93
2022/10/04 10:08:19;;;;;;;6.95;1.00;;;15.80;99.90;;;;;;5040150;28;20021;-94
2022/10/04 10:14:35;;;;;;;1.02;0.70;;;16.00;99.90;;;;;;5012414;28;20095;-92
2022/10/04 10:17:23;;;;;;;1.85;0.70;;;16.00;99.90;;;;;;5010038;28;20064;-93
2022/10/04 10:19:59;;;;;;;2.47;0.70;;;15.90;99.90;;;;;;5032907;28;20042;-95
2022/10/04 10:22:40;;;;;;;3.17;0.85;;;15.90;99.90;;;;;;5024316;28;20026;-92
2022/10/04 10:25:28;;;;;;;3.22;1.27;;;15.80;99.90;;;;;;5015387;28;20038;-92
2022/10/04 10:28:13;;;;;;;2.63;1.02;;;15.80;99.90;;;;;;5005639;28;20034;-94
2022/10/04 10:30:57;;;;;;;3.22;1.00;;;15.70;99.90;;;;;;5046422;28;20018;-94
2022/10/04 10:33:42;;;;;;;2.92;0.82;;;15.70;99.90;;;;;;5009701;28;20030;-94
2022/10/04 10:36:47;;;;;;;3.55;1.08;;;15.60;99.90;;;;;;5020782;28;20041;-95
2022/10/04 10:39:34;;;;;;;1.48;0.90;;;15.60;99.90;;;;;;5013767;28;20034;-95
2022/10/04 10:42:37;;;;;;;2.60;1.00;;;15.60;99.90;;;;;;5021899;28;20022;-94
2022/10/04 10:45:30;;;;;;;1.48;0.70;;;15.60;99.90;;;;;;5017280;28;20022;-93
2022/10/04 10:48:02;;;;;;;1.85;1.30;;;15.50;99.90;;;;;;5016218;28;20018;-93
2022/10/04 10:50:58;;;;;;;1.60;1.13;;;15.50;99.90;;;;;;5018634;28;20029;-95
2022/10/04 10:54:04;;;;;;;2.20;1.40;;;15.50;99.90;;;;;;5018381;28;20474;-91
2022/10/04 10:57:01;;;;;;;2.20;1.13;;;15.50;99.90;;;;;;5025461;28;20103;-93
2022/10/04 10:59:48;;;;;;;2.95;1.73;;;15.50;99.90;;;;;;5022151;28;20033;-93
2022/10/04 11:02:44;;;;;;;9.23;1.88;;;15.50;99.90;;;;;;5017969;28;20047;-93
2022/10/04 11:05:28;;;;;;;4.35;2.17;;;15.50;99.90;;;;;;5039337;28;20030;-93
2022/10/04 11:08:15;;;;;;;6.07;2.28;;;15.50;99.90;;;;;;5018734;28;20022;-92
2022/10/04 11:11:07;;;;;;;6.38;2.55;;;15.50;99.90;;;;;;5017208;28;20037;-92
2022/10/04 11:13:46;;;;;;;3.05;2.30;;;15.50;99.90;;;;;;5020600;28;20030;-94
2022/10/04 11:16:33;;;;;;;3.92;2.33;;;15.50;99.90;;;;;;5021264;28;20482;-93
2022/10/04 11:19:28;;;;;;;5.88;2.38;;;15.50;99.90;;;;;;5025184;28;20116;-93
2022/10/04 11:22:26;;;;;;;4.50;2.38;;;15.50;99.90;;;;;;5027719;28;20062;-95
2022/10/04 11:24:58;;;;;;;4.13;2.20;;;15.50;99.90;;;;;;5008193;28;20033;-95
2022/10/04 11:27:42;;;;;;;7.18;2.28;;;15.50;99.90;;;;;;5018470;28;20036;-94
2022/10/04 11:30:15;;;;;;;3.25;1.90;;;15.50;99.90;;;;;;5019170;28;20032;-94
2022/10/04 11:33:27;;;;;;;5.10;2.40;;;15.40;99.90;;;;;;5006438;28;20109;-93
2022/10/04 11:36:13;;;;;;;6.60;2.63;;;15.40;99.90;;;;;;5008005;28;20053;-94
2022/10/04 11:39:01;;;;;;;3.03;2.13;;;15.40;99.90;;;;;;5006470;28;20125;-94
2022/10/04 11:41:42;;;;;;;2.40;1.88;;;15.40;99.90;;;;;;5018170;28;20041;-94
2022/10/04 11:44:15;;;;;;;;;;;15.30;99.90;;;;;;5023418;28;20029;-93
2022/10/04 11:46:51;;;;;;;6.35;2.10;;;15.30;99.90;;;;;;5027565;28;19909;-92
2022/10/04 11:49:35;;;;;;;3.88;2.13;;;15.40;99.90;;;;;;5000032;28;20026;-95
2022/10/04 11:52:28;;;;;;;8.52;1.90;;;15.30;99.90;;;;;;5013253;28;20498;-95
2022/10/04 11:55:00;;;;;;;3.88;1.90;;;15.40;99.90;;;;;;5020424;28;20026;-94
2022/10/04 11:57:53;;;;;;;3.90;1.58;;;15.40;99.90;;;;;;5024476;28;20049;-94
2022/10/04 12:00:22;;;;;;;3.83;1.70;;;15.40;99.90;;;;;;5025695;28;20460;-92
2022/10/04 12:03:01;;;;;;;6.53;2.50;;;15.40;99.90;;;;;;5021740;28;20089;-92
2022/10/04 12:05:49;;;;;;;8.52;2.58;;;15.40;99.90;;;;;;5020727;28;20030;-94
2022/10/04 12:08:45;;;;;;;4.88;1.48;;;15.50;99.90;;;;;;5018557;28;20088;-94
2022/10/04 12:12:35;;;;;;;3.45;1.40;;;15.50;99.90;;;;;;5014338;28;20073;-91
2022/10/04 12:14:55;;;;;;;6.07;1.67;;;15.60;99.90;;;;;;5024105;28;20030;-94
2022/10/04 12:17:45;;;;;;;4.07;1.70;;;15.60;99.90;;;;;;4938945;29;20529;-94
2022/10/04 12:20:46;;;;;;;4.28;1.33;;;15.70;99.90;;;;;;4942032;29;20031;-95
2022/10/04 12:23:44;;;;;;;3.00;1.17;;;15.70;99.90;;;;;;4944813;29;20043;-93
2022/10/04 12:26:16;;;;;;;3.53;1.40;;;15.70;99.90;;;;;;4939112;29;20029;-92
2022/10/04 12:29:27;;;;;;;3.35;1.42;;;15.80;99.90;;;;;;4934487;29;20043;-92
2022/10/04 12:32:19;;;;;;;6.03;1.35;;;15.80;99.90;;;;;;4935537;29;20039;-93
2022/10/04 12:35:00;;;;;;;1.75;1.20;;;15.80;99.90;;;;;;4899486;29;20036;-92
2022/10/04 12:37:37;;;;;;;2.08;1.15;;;15.90;99.90;;;;;;4919907;29;20024;-94
2022/10/04 12:40:32;;;;;;;2.00;1.35;;;15.80;99.90;;;;;;4944381;29;20039;-92
2022/10/04 12:43:23;;;;;;;3.90;1.50;;;15.80;99.90;;;;;;4925291;29;20023;-93
2022/10/04 12:46:22;;;;;;;3.38;1.25;;;15.80;99.90;;;;;;4921207;29;20042;-94
2022/10/04 12:49:18;;;;;;;2.70;1.23;;;15.80;99.90;;;;;;5011018;28;20033;-95
2022/10/04 12:51:53;;;;;;;2.65;1.30;;;15.80;99.90;;;;;;5029903;28;20030;-94
2022/10/04 12:54:41;;;;;;;3.50;1.30;;;15.80;99.90;;;;;;5021090;28;20018;-95
2022/10/04 12:57:36;;;;;;;2.83;1.65;;;15.80;99.90;;;;;;5021214;28;20022;-95
2022/10/04 13:00:18;;;;;;;2.50;1.20;;;15.80;99.90;;;;;;5020524;28;20056;-96
2022/10/04 13:02:56;;;;;;;1.40;0.95;;;15.80;99.90;;;;;;5025154;28;20030;-95
2022/10/04 13:05:46;;;;;;;2.88;1.20;;;15.80;99.90;;;;;;5022904;28;20056;-95
2022/10/04 13:08:30;;;;;;;1.98;1.10;;;15.90;99.90;;;;;;5008408;28;20050;-95
2022/10/04 13:11:19;;;;;;;3.15;1.08;;;16.00;99.90;;;;;;5021898;28;20042;-96
2022/10/04 13:14:24;;;;;;;5.10;1.55;;;15.90;99.90;;;;;;4997648;28;20022;-93
2022/10/04 13:17:09;;;;;;;3.78;1.02;;;16.00;99.90;;;;;;5009588;28;20026;-94
2022/10/04 13:19:59;;;;;;;2.40;1.17;;;16.00;99.90;;;;;;5008840;28;20088;-95
2022/10/04 13:22:34;;;;;;;3.63;1.45;;;16.00;99.90;;;;;;5016988;28;20034;-96
2022/10/04 13:25:14;;;;;;;5.65;1.50;;;16.00;99.90;;;;;;5015073;28;20029;-96
2022/10/04 13:27:58;;;;;;;2.63;1.43;;;16.00;99.90;;;;;;5018052;28;20026;-95
2022/10/04 13:30:48;;;;;;;3.53;1.77;;;16.00;99.90;;;;;;5013875;28;20269;-94
2022/10/04 13:33:43;;;;;;;3.80;1.67;;;16.00;99.90;;;;;;5012799;28;20070;-94
2022/10/04 13:36:23;;;;;;;3.17;1.55;;;15.90;99.90;;;;;;5013534;28;20030;-94
2022/10/04 13:39:09;;;;;;;4.93;1.63;;;15.90;99.90;;;;;;5017350;28;20038;-95
2022/10/04 13:42:22;;;;;;;4.10;1.70;;;15.90;99.90;;;;;;5015534;28;20053;-96
2022/10/04 13:44:58;;;;;;;2.83;1.58;;;15.90;99.90;;;;;;4962274;28;20036;-92
2022/10/04 13:47:55;;;;;;;5.07;2.05;;;15.80;99.90;;;;;;5015502;28;20026;-91
2022/10/04 13:50:27;;;;;;;4.35;1.60;;;15.80;99.90;;;;;;5010856;28;20014;-94
2022/10/04 13:56:36;;;;;;;3.22;1.33;;;15.70;99.90;;;;;;5017530;28;20123;-94
2022/10/04 13:59:25;;;;;;;2.42;1.48;;;15.60;99.90;;;;;;5019916;28;20064;-93
2022/10/04 14:01:57;;;;;;;3.05;1.60;;;15.60;99.90;;;;;;5020176;28;20500;-93
2022/10/04 14:04:41;;;;;;;5.38;1.98;;;15.60;99.90;;;;;;5006115;28;20022;-95
2022/10/04 14:07:32;;;;;;;2.15;1.90;;;15.60;99.90;;;;;;5011101;28;20045;-96
2022/10/04 14:10:28;;;;;;;3.10;1.50;;;15.60;99.90;;;;;;5012636;28;20045;-94
2022/10/04 14:13:24;;;;;;;1.88;1.65;;;15.60;99.90;;;;;;5012876;28;20041;-94